Terminal Aerodrome Forecast
Issued by NWS Twin Cities, MN

Home | Current Version | Previous Version | Text Only | Print | Product List | Glossary Off
Versions: 1 2 3 4 5 6 7 8 9 10 11 12 13 14 15 16 17 18 19 20 21 22 23 24 25 26 27 28 29 30 31 32

721
FTUS43 KMPX 031459 AAA
TAFMSP
TAF AMD
KMSP 031459Z 0315/0418 24004KT P6SM OVC023
     FM031700 18004KT P6SM OVC025
     FM032000 14006KT P6SM BKN040 BKN100
     FM040400 14007KT P6SM BKN030 OVC090
      TEMPO 0405/0408 4SM -SN OVC020
     FM040800 15008KT 2SM -SN OVC010
     FM041400 16008KT 4SM -SN OVC015=

USA.gov is the U.S. government's official web portal to all federal, state and local government web resources and services.